Time;durP1;ratioP1;P1;durP2;ratioP2;P2;SDS_P1;SDS_P2;PMS_P1;PMS_P2;Temp;Humidity;BMP_temperature;BMP_pressure;BME280_temperature;BME280_humidity;BME280_pressure;Samples;Min_cycle;Max_cycle;Signal;HPM_P1;HPM_P2
2022/08/27 00:02:07;;;;;;;8.57;2.72;;;16.10;99.90;;;;;;5019752;28;20063;-78
2022/08/27 00:04:33;;;;;;;6.60;2.58;;;16.10;99.90;;;;;;5032803;28;20132;-77
2022/08/27 00:07:00;;;;;;;10.93;2.90;;;16.00;99.90;;;;;;5038972;28;20028;-77
2022/08/27 00:09:26;;;;;;;11.27;3.08;;;16.00;99.90;;;;;;5038064;28;20653;-76
2022/08/27 00:11:52;;;;;;;9.57;3.65;;;15.90;99.90;;;;;;5033643;28;20041;-77
2022/08/27 00:14:17;;;;;;;7.90;3.25;;;15.80;99.90;;;;;;5015435;28;20102;-78
2022/08/27 00:16:43;;;;;;;9.77;3.40;;;15.80;99.90;;;;;;5036405;28;20506;-76
2022/08/27 00:19:10;;;;;;;11.20;3.63;;;15.70;99.90;;;;;;5032977;28;20037;-80
2022/08/27 00:21:36;;;;;;;8.07;3.63;;;15.70;99.90;;;;;;5031487;28;20040;-76
2022/08/27 00:24:05;;;;;;;10.35;3.53;;;15.60;99.90;;;;;;5020215;28;20074;-79
2022/08/27 00:26:31;;;;;;;9.60;3.13;;;15.60;99.90;;;;;;5032584;28;20395;-76
2022/08/27 00:28:59;;;;;;;7.28;3.10;;;15.60;99.90;;;;;;5032999;28;20557;-78
2022/08/27 00:31:25;;;;;;;11.13;3.22;;;15.50;99.90;;;;;;5038865;28;21983;-77
2022/08/27 00:33:51;;;;;;;9.38;3.67;;;15.50;99.90;;;;;;5041170;28;20754;-79
2022/08/27 00:36:16;;;;;;;9.88;3.22;;;15.50;99.90;;;;;;5040178;28;20041;-78
2022/08/27 00:38:42;;;;;;;6.63;2.78;;;15.50;99.90;;;;;;5015459;28;20131;-76
2022/08/27 00:41:11;;;;;;;13.45;3.22;;;15.40;99.90;;;;;;5021408;28;20391;-78
2022/08/27 00:43:56;;;;;;;10.75;3.30;;;15.40;99.90;;;;;;5030477;28;20037;-77
2022/08/27 00:46:40;;;;;;;9.75;3.38;;;15.30;99.90;;;;;;5055958;28;20128;-76
2022/08/27 00:49:30;;;;;;;8.83;3.20;;;15.30;99.90;;;;;;5015822;28;20049;-79
2022/08/27 00:52:01;;;;;;;8.75;3.35;;;15.30;99.90;;;;;;5049738;28;20353;-79
2022/08/27 00:54:29;;;;;;;10.23;2.95;;;15.30;99.90;;;;;;5035257;28;20048;-77
2022/08/27 00:56:56;;;;;;;5.95;3.17;;;15.30;99.90;;;;;;5033318;28;20044;-78
2022/08/27 00:59:27;;;;;;;10.85;3.42;;;15.20;99.90;;;;;;5032757;28;20187;-77
2022/08/27 01:04:41;;;;;;;13.88;3.42;;;15.20;99.90;;;;;;5034305;28;20057;-78
2022/08/27 01:07:08;;;;;;;9.43;3.60;;;15.20;99.90;;;;;;5032550;28;20098;-76
2022/08/27 01:09:35;;;;;;;6.75;3.13;;;15.20;99.90;;;;;;5030933;28;20175;-77
2022/08/27 01:12:02;;;;;;;9.73;3.10;;;15.20;99.90;;;;;;5029055;28;20072;-76
2022/08/27 01:14:28;;;;;;;8.20;3.13;;;15.20;99.90;;;;;;5034535;28;20049;-78
2022/08/27 01:16:56;;;;;;;11.70;3.25;;;15.20;99.90;;;;;;5051644;28;21187;-80
2022/08/27 01:19:34;;;;;;;8.13;3.20;;;15.30;99.90;;;;;;5015988;28;20036;-77
2022/08/27 01:22:23;;;;;;;13.75;3.50;;;15.30;99.90;;;;;;5052918;28;20041;-76
2022/08/27 01:24:53;;;;;;;10.18;3.50;;;15.30;99.90;;;;;;5019731;28;20091;-81
2022/08/27 01:27:24;;;;;;;7.95;3.22;;;15.30;99.90;;;;;;5036038;28;20477;-79
2022/08/27 01:29:50;;;;;;;7.78;3.47;;;15.40;99.90;;;;;;5034364;28;20101;-78
2022/08/27 01:32:23;;;;;;;9.93;3.20;;;15.40;99.90;;;;;;5031514;28;20048;-76
2022/08/27 01:34:49;;;;;;;10.30;3.05;;;15.40;99.90;;;;;;5039686;28;20060;-77
2022/08/27 01:37:17;;;;;;;7.57;3.35;;;15.40;99.90;;;;;;5034170;28;20043;-79
2022/08/27 01:39:43;;;;;;;9.15;3.38;;;15.40;99.90;;;;;;5036546;28;20183;-79
2022/08/27 01:42:14;;;;;;;11.05;3.33;;;15.40;99.90;;;;;;5032257;28;20106;-79
2022/08/27 01:44:47;;;;;;;9.70;3.00;;;15.40;99.90;;;;;;5034104;28;20048;-78
2022/08/27 01:47:32;;;;;;;7.82;2.88;;;15.40;99.90;;;;;;5037907;28;20049;-77
2022/08/27 01:49:59;;;;;;;8.48;3.03;;;15.40;99.90;;;;;;5032272;28;20075;-78
2022/08/27 01:52:28;;;;;;;7.40;2.85;;;15.40;99.90;;;;;;5014005;28;20750;-80
2022/08/27 01:54:54;;;;;;;5.88;2.90;;;15.40;99.90;;;;;;5039490;28;20036;-77
2022/08/27 01:57:21;;;;;;;8.15;3.20;;;15.40;99.90;;;;;;5020211;28;20043;-76
2022/08/27 01:59:47;;;;;;;6.03;2.72;;;15.40;99.90;;;;;;5039963;28;20527;-78
2022/08/27 02:02:15;;;;;;;9.57;2.80;;;15.40;99.90;;;;;;5018533;28;20068;-78
2022/08/27 02:04:41;;;;;;;8.93;3.22;;;15.40;99.90;;;;;;5034215;28;20067;-76
2022/08/27 02:07:08;;;;;;;7.57;2.70;;;15.30;99.90;;;;;;5028539;28;20076;-79
2022/08/27 02:09:38;;;;;;;8.65;3.08;;;15.30;99.90;;;;;;5033637;28;20128;-78
2022/08/27 02:12:04;;;;;;;9.27;3.08;;;15.20;99.90;;;;;;5033091;28;20040;-79
2022/08/27 02:14:30;;;;;;;11.30;3.05;;;15.20;99.90;;;;;;5035448;28;20405;-78
2022/08/27 02:16:55;;;;;;;7.25;3.00;;;15.20;99.90;;;;;;5028472;28;20661;-80
2022/08/27 02:19:22;;;;;;;6.78;2.90;;;15.20;99.90;;;;;;5012487;28;20033;-77
2022/08/27 02:21:48;;;;;;;11.18;3.17;;;15.10;99.90;;;;;;5029330;28;20053;-76
2022/08/27 02:24:14;;;;;;;6.80;2.88;;;15.10;99.90;;;;;;5032013;28;20429;-77
2022/08/27 02:26:40;;;;;;;5.68;2.80;;;15.00;99.90;;;;;;5034775;28;20033;-79
2022/08/27 02:29:07;;;;;;;6.43;2.78;;;15.10;99.90;;;;;;5016253;28;20037;-78
2022/08/27 02:31:33;;;;;;;6.03;2.70;;;15.00;99.90;;;;;;5033962;28;20128;-78
2022/08/27 02:34:00;;;;;;;5.65;2.70;;;15.00;99.90;;;;;;5033458;28;20128;-76
2022/08/27 02:36:26;;;;;;;6.45;2.60;;;15.00;99.90;;;;;;5010236;28;20471;-79
2022/08/27 02:38:52;;;;;;;7.97;2.88;;;15.00;99.90;;;;;;5021897;28;20037;-77
2022/08/27 02:41:17;;;;;;;7.20;2.60;;;15.00;99.90;;;;;;5040236;28;20032;-78
2022/08/27 02:43:44;;;;;;;7.30;2.88;;;15.00;99.90;;;;;;5029256;28;20048;-80
2022/08/27 02:46:10;;;;;;;11.00;3.00;;;15.00;99.90;;;;;;5039898;28;20445;-76
2022/08/27 02:48:38;;;;;;;13.63;2.70;;;15.00;99.90;;;;;;5022067;28;20044;-79
2022/08/27 02:51:04;;;;;;;12.32;3.10;;;15.10;99.90;;;;;;5036567;28;20068;-79
2022/08/27 02:53:31;;;;;;;10.75;2.60;;;15.10;99.90;;;;;;5032869;28;20129;-81
2022/08/27 02:55:57;;;;;;;6.15;2.53;;;15.10;99.90;;;;;;5035078;28;20132;-77
2022/08/27 02:58:23;;;;;;;9.40;2.53;;;15.00;99.90;;;;;;5031806;28;21249;-78
2022/08/27 03:00:49;;;;;;;8.30;2.70;;;15.10;99.90;;;;;;5031673;28;20062;-77
2022/08/27 03:03:14;;;;;;;12.60;2.95;;;15.20;99.90;;;;;;5018000;28;20518;-79
2022/08/27 03:05:40;;;;;;;8.68;2.38;;;15.10;99.90;;;;;;5034791;28;20067;-78
2022/08/27 03:08:06;;;;;;;6.07;2.13;;;15.10;99.90;;;;;;5035726;28;20151;-78
2022/08/27 03:10:32;;;;;;;9.15;2.75;;;15.10;99.90;;;;;;5037716;28;22213;-77
2022/08/27 03:12:58;;;;;;;11.90;2.50;;;15.00;99.90;;;;;;5038480;28;20545;-79
2022/08/27 03:15:23;;;;;;;9.82;2.67;;;15.00;99.90;;;;;;5028434;28;20051;-75
2022/08/27 03:20:39;;;;;;;6.85;2.25;;;15.00;99.90;;;;;;5039882;28;20102;-76
2022/08/27 03:23:06;;;;;;;6.13;2.25;;;15.00;99.90;;;;;;5039756;28;20045;-75
2022/08/27 03:25:32;;;;;;;5.15;1.95;;;15.00;99.90;;;;;;5039530;28;20044;-78
2022/08/27 03:27:57;;;;;;;6.25;2.13;;;15.00;99.90;;;;;;5036070;28;20045;-77
2022/08/27 03:30:23;;;;;;;10.32;2.20;;;15.00;99.90;;;;;;5034839;28;20052;-76
2022/08/27 03:32:50;;;;;;;7.75;2.20;;;15.00;99.90;;;;;;5052408;28;20174;-77
2022/08/27 03:35:17;;;;;;;7.45;2.10;;;15.00;99.90;;;;;;5041978;28;20428;-76
2022/08/27 03:37:43;;;;;;;6.68;2.30;;;15.00;99.90;;;;;;5019636;28;20118;-79
2022/08/27 03:40:09;;;;;;;5.07;2.00;;;15.00;99.90;;;;;;5041420;28;20456;-77
2022/08/27 03:42:35;;;;;;;6.75;1.90;;;14.90;99.90;;;;;;5048463;28;20394;-80
2022/08/27 03:45:05;;;;;;;8.48;2.05;;;14.90;99.90;;;;;;5043371;28;20115;-78
2022/08/27 03:47:34;;;;;;;7.10;1.95;;;14.90;99.90;;;;;;5035478;28;20051;-78
2022/08/27 03:50:00;;;;;;;9.05;2.10;;;14.90;99.90;;;;;;5035564;28;20763;-76
2022/08/27 03:52:29;;;;;;;5.22;2.13;;;14.90;99.90;;;;;;5039124;28;20041;-77
2022/08/27 03:54:55;;;;;;;7.38;2.03;;;14.90;99.90;;;;;;5037577;28;20075;-76
2022/08/27 03:57:20;;;;;;;7.38;2.10;;;14.90;99.90;;;;;;5037238;28;20290;-77
2022/08/27 03:59:46;;;;;;;8.55;2.20;;;14.90;99.90;;;;;;5038082;28;20049;-78
2022/08/27 04:02:11;;;;;;;6.28;2.10;;;14.80;99.90;;;;;;5041551;28;20132;-78
2022/08/27 04:04:37;;;;;;;10.18;2.05;;;14.70;99.90;;;;;;5030722;28;20045;-77
2022/08/27 04:07:03;;;;;;;8.77;2.10;;;14.60;99.90;;;;;;5060388;28;20083;-75
2022/08/27 04:09:29;;;;;;;9.52;2.22;;;14.50;99.90;;;;;;5041446;28;20161;-80
2022/08/27 04:11:54;;;;;;;7.78;1.90;;;14.40;99.90;;;;;;5039407;28;20045;-77
2022/08/27 04:14:20;;;;;;;7.78;2.17;;;14.50;99.90;;;;;;5036524;28;20060;-77
2022/08/27 04:16:46;;;;;;;7.32;2.08;;;14.50;99.90;;;;;;5038510;28;20041;-77
2022/08/27 04:19:12;;;;;;;7.03;2.10;;;14.40;99.90;;;;;;5019055;28;20032;-77
2022/08/27 04:21:38;;;;;;;7.22;1.90;;;14.30;99.90;;;;;;5021395;28;20144;-77
2022/08/27 04:24:04;;;;;;;7.88;2.42;;;14.20;99.90;;;;;;5037119;28;20322;-77
2022/08/27 04:26:29;;;;;;;4.30;2.10;;;14.20;99.90;;;;;;5037581;28;20048;-76
2022/08/27 04:28:57;;;;;;;6.05;2.00;;;14.20;99.90;;;;;;5036226;28;20152;-77
2022/08/27 04:31:24;;;;;;;8.43;2.20;;;14.10;99.90;;;;;;5021068;28;20037;-77
2022/08/27 04:33:52;;;;;;;7.57;2.30;;;14.10;99.90;;;;;;5057238;28;20061;-79
2022/08/27 04:36:19;;;;;;;9.38;2.40;;;14.00;99.90;;;;;;5027382;28;20103;-78
2022/08/27 04:38:46;;;;;;;5.65;2.47;;;14.00;99.90;;;;;;5037709;28;20047;-76
2022/08/27 04:41:23;;;;;;;5.07;2.22;;;13.90;99.90;;;;;;5044777;28;20135;-77
2022/08/27 04:43:55;;;;;;;6.88;2.30;;;13.70;99.90;;;;;;5017425;28;20029;-74
2022/08/27 04:46:22;;;;;;;8.80;2.38;;;13.80;99.90;;;;;;5038675;28;20037;-78
2022/08/27 04:48:47;;;;;;;3.95;2.38;;;13.80;99.90;;;;;;5024882;28;20036;-78
2022/08/27 04:51:13;;;;;;;7.40;2.53;;;13.80;99.90;;;;;;5038685;28;20486;-78
2022/08/27 04:53:39;;;;;;;7.55;2.80;;;13.90;99.90;;;;;;5038048;28;20049;-77
2022/08/27 04:56:05;;;;;;;6.47;2.35;;;13.90;99.90;;;;;;5039697;28;20041;-75
2022/08/27 04:58:31;;;;;;;5.05;2.47;;;14.00;99.90;;;;;;5023577;28;20056;-77
2022/08/27 05:01:00;;;;;;;7.97;2.97;;;14.10;99.90;;;;;;5017154;28;20179;-78
2022/08/27 05:03:27;;;;;;;7.03;2.72;;;14.10;99.90;;;;;;5024418;28;20057;-77
2022/08/27 05:06:02;;;;;;;7.43;2.78;;;14.20;99.90;;;;;;5029287;28;20123;-78
2022/08/27 05:08:28;;;;;;;10.38;3.10;;;14.30;99.90;;;;;;5033562;28;20161;-77
2022/08/27 05:10:54;;;;;;;7.20;3.13;;;14.40;99.90;;;;;;5037097;28;20037;-76
2022/08/27 05:13:23;;;;;;;7.40;3.55;;;14.50;99.90;;;;;;5040103;28;20051;-77
2022/08/27 05:15:56;;;;;;;6.93;3.40;;;14.60;99.90;;;;;;5042811;28;20083;-77
2022/08/27 05:18:21;;;;;;;12.25;3.40;;;14.60;99.90;;;;;;5021780;28;20033;-77
2022/08/27 05:20:48;;;;;;;8.38;3.08;;;14.70;99.90;;;;;;5037996;28;20094;-80
2022/08/27 05:23:16;;;;;;;12.35;3.40;;;14.80;99.90;;;;;;5018847;28;20056;-80
2022/08/27 05:25:45;;;;;;;8.77;3.40;;;14.90;99.90;;;;;;5035190;28;20041;-79
2022/08/27 05:28:12;;;;;;;7.45;3.15;;;15.00;99.90;;;;;;5021096;28;20068;-76
2022/08/27 05:30:43;;;;;;;8.52;3.30;;;15.00;99.90;;;;;;5017870;28;20040;-80
2022/08/27 05:33:10;;;;;;;12.13;3.83;;;15.10;99.90;;;;;;5034810;28;20132;-77
2022/08/27 05:35:44;;;;;;;5.72;3.30;;;15.20;99.90;;;;;;5041760;28;20457;-77
2022/08/27 05:38:11;;;;;;;10.63;3.47;;;15.30;99.90;;;;;;5038603;28;20048;-77
2022/08/27 05:40:38;;;;;;;8.18;3.10;;;15.30;99.90;;;;;;5035344;28;20484;-76
2022/08/27 05:43:04;;;;;;;6.93;3.20;;;15.40;99.90;;;;;;5045381;28;20133;-76
2022/08/27 05:45:30;;;;;;;4.30;2.75;;;15.50;99.90;;;;;;5017633;28;20045;-78
2022/08/27 05:47:57;;;;;;;7.82;3.05;;;15.60;99.90;;;;;;5059292;28;20041;-78
2022/08/27 05:50:24;;;;;;;7.68;3.03;;;15.70;99.90;;;;;;5026353;28;20044;-77
2022/08/27 05:52:50;;;;;;;7.82;3.00;;;15.70;99.90;;;;;;5037570;28;20045;-77
2022/08/27 05:55:16;;;;;;;7.65;2.92;;;15.80;99.90;;;;;;5035063;28;20039;-76
2022/08/27 05:57:45;;;;;;;9.40;3.00;;;15.80;99.90;;;;;;5034692;28;20044;-77
2022/08/27 06:02:55;;;;;;;7.55;3.15;;;15.90;99.90;;;;;;5043992;28;20049;-78
2022/08/27 06:05:20;;;;;;;7.80;2.40;;;16.00;99.90;;;;;;5035186;28;20399;-76
2022/08/27 06:07:47;;;;;;;9.45;3.20;;;16.00;99.90;;;;;;5029802;28;20195;-79
2022/08/27 06:10:13;;;;;;;10.55;2.75;;;16.20;99.90;;;;;;5031275;28;20037;-79
2022/08/27 06:12:38;;;;;;;8.18;2.45;;;16.30;99.90;;;;;;5032920;28;20056;-79
2022/08/27 06:15:04;;;;;;;5.93;2.70;;;16.40;99.90;;;;;;5038953;28;20042;-76
2022/08/27 06:17:30;;;;;;;6.07;2.55;;;16.40;99.90;;;;;;5025421;28;20045;-78
2022/08/27 06:19:56;;;;;;;7.70;2.25;;;16.50;99.90;;;;;;5029289;28;22347;-78
2022/08/27 06:22:22;;;;;;;9.75;2.28;;;16.60;99.90;;;;;;5016003;28;20477;-76
2022/08/27 06:24:48;;;;;;;6.97;2.08;;;16.70;99.90;;;;;;5030665;28;20041;-77
2022/08/27 06:27:16;;;;;;;8.65;2.60;;;16.70;99.90;;;;;;5033469;28;20090;-78
2022/08/27 06:29:42;;;;;;;5.63;2.35;;;16.80;99.90;;;;;;5033166;28;20045;-79
2022/08/27 06:32:09;;;;;;;15.40;2.58;;;16.90;99.90;;;;;;5046555;28;20056;-78
2022/08/27 06:34:36;;;;;;;8.15;2.40;;;17.00;99.90;;;;;;5033611;28;20434;-78
2022/08/27 06:37:03;;;;;;;12.15;3.17;;;17.00;99.90;;;;;;5034777;28;20372;-77
2022/08/27 06:39:30;;;;;;;11.07;2.05;;;17.20;99.90;;;;;;5026630;28;20447;-78
2022/08/27 06:41:56;;;;;;;7.85;2.10;;;17.20;99.90;;;;;;5029122;28;20045;-80
2022/08/27 06:44:23;;;;;;;12.93;2.55;;;17.30;99.90;;;;;;5043045;28;20040;-77
2022/08/27 06:46:49;;;;;;;7.60;2.22;;;17.40;99.90;;;;;;5033734;28;20079;-78
2022/08/27 06:49:15;;;;;;;10.75;2.03;;;17.50;99.90;;;;;;5038288;28;20052;-74
2022/08/27 06:51:44;;;;;;;11.07;2.13;;;17.50;99.90;;;;;;5039665;28;20041;-79
2022/08/27 06:54:11;;;;;;;10.98;2.25;;;17.70;99.90;;;;;;5045184;28;20485;-79
2022/08/27 06:56:37;;;;;;;12.65;2.50;;;17.90;99.90;;;;;;5037394;28;20052;-76
2022/08/27 06:59:07;;;;;;;7.15;2.00;;;18.00;99.90;;;;;;5052738;28;20056;-79
2022/08/27 07:01:36;;;;;;;10.23;2.17;;;18.10;99.90;;;;;;5036647;28;20136;-79
2022/08/27 07:04:05;;;;;;;6.82;1.92;;;18.20;99.90;;;;;;5017451;28;20473;-78
2022/08/27 07:06:34;;;;;;;9.60;2.22;;;18.20;99.90;;;;;;5032782;28;20041;-77
2022/08/27 07:09:00;;;;;;;5.07;1.67;;;18.50;99.90;;;;;;5019033;28;20123;-78
2022/08/27 07:11:27;;;;;;;8.40;2.25;;;18.30;99.90;;;;;;5020089;28;20424;-78
2022/08/27 07:13:53;;;;;;;5.55;2.00;;;18.40;99.90;;;;;;5033933;28;20127;-79
2022/08/27 07:16:21;;;;;;;9.05;2.53;;;18.50;99.90;;;;;;5051281;28;21710;-77
2022/08/27 07:18:52;;;;;;;9.02;2.20;;;18.60;99.90;;;;;;5039991;28;20045;-76
2022/08/27 07:21:19;;;;;;;6.68;1.92;;;18.50;99.90;;;;;;5041064;28;20033;-77
2022/08/27 07:23:45;;;;;;;8.02;1.98;;;18.50;99.90;;;;;;5022366;28;20064;-77
2022/08/27 07:26:13;;;;;;;12.60;2.20;;;18.60;99.90;;;;;;5020422;28;20072;-78
2022/08/27 07:28:40;;;;;;;8.20;1.90;;;18.60;99.90;;;;;;5037263;28;20049;-77
2022/08/27 07:31:08;;;;;;;8.55;1.83;;;18.60;99.90;;;;;;5036043;28;20045;-80
2022/08/27 07:33:35;;;;;;;10.25;1.88;;;18.70;99.90;;;;;;5051518;28;20068;-78
2022/08/27 07:36:01;;;;;;;6.50;1.70;;;18.70;99.90;;;;;;5055329;28;20044;-80
2022/08/27 07:38:27;;;;;;;10.48;1.90;;;18.80;99.90;;;;;;5037132;28;20564;-79
2022/08/27 07:40:53;;;;;;;8.95;1.70;;;18.80;99.90;;;;;;5032241;28;20075;-76
2022/08/27 07:46:04;;;;;;;9.68;1.83;;;19.00;99.90;;;;;;5039641;28;20345;-79
2022/08/27 07:48:33;;;;;;;9.50;1.63;;;19.00;99.90;;;;;;5038321;28;20048;-78
2022/08/27 07:51:07;;;;;;;10.00;1.83;;;18.90;99.90;;;;;;5020029;28;20045;-80
2022/08/27 07:53:32;;;;;;;9.40;1.88;;;19.00;99.90;;;;;;5041672;28;20040;-79
2022/08/27 07:56:06;;;;;;;5.90;1.60;;;19.00;99.90;;;;;;5021254;28;20118;-78
2022/08/27 07:58:32;;;;;;;10.43;2.08;;;18.90;99.90;;;;;;5019256;28;20033;-80
2022/08/27 08:00:58;;;;;;;7.97;1.52;;;18.80;99.90;;;;;;5033609;28;20076;-77
2022/08/27 08:03:24;;;;;;;15.27;2.15;;;18.80;99.90;;;;;;5037877;28;20079;-80
2022/08/27 08:05:52;;;;;;;10.27;1.98;;;18.90;99.90;;;;;;5044746;28;20061;-79
2022/08/27 08:08:19;;;;;;;7.38;1.45;;;18.90;99.90;;;;;;5031408;28;20670;-77
2022/08/27 08:10:46;;;;;;;9.20;1.50;;;18.90;99.90;;;;;;5036131;28;20060;-76
2022/08/27 08:13:12;;;;;;;5.70;1.60;;;19.00;99.90;;;;;;5021292;28;20045;-76
2022/08/27 08:15:38;;;;;;;10.88;1.42;;;19.10;99.90;;;;;;5020040;28;20044;-76
2022/08/27 08:18:04;;;;;;;7.88;1.63;;;19.10;99.90;;;;;;5029984;28;20033;-76
2022/08/27 08:20:30;;;;;;;10.20;1.80;;;19.30;99.90;;;;;;5043009;28;20392;-77
2022/08/27 08:22:56;;;;;;;9.43;1.83;;;19.40;99.90;;;;;;5042887;28;20040;-76
2022/08/27 08:25:22;;;;;;;10.60;1.52;;;19.60;99.90;;;;;;5027504;28;20110;-77
2022/08/27 08:27:47;;;;;;;8.68;1.50;;;19.60;99.90;;;;;;5036101;28;20083;-76
2022/08/27 08:30:13;;;;;;;13.18;1.83;;;19.70;99.90;;;;;;5051175;28;20048;-77
2022/08/27 08:32:39;;;;;;;7.68;1.50;;;19.70;99.90;;;;;;5046963;28;20048;-76
2022/08/27 08:35:06;;;;;;;7.93;1.50;;;19.70;99.90;;;;;;5061101;28;20436;-75
2022/08/27 08:37:32;;;;;;;7.03;1.50;;;19.70;99.90;;;;;;5034628;28;20045;-76
2022/08/27 08:39:58;;;;;;;14.48;2.00;;;19.60;99.90;;;;;;5041534;28;20107;-77
2022/08/27 08:42:29;;;;;;;9.35;1.60;;;19.60;99.90;;;;;;5031492;28;20132;-77
2022/08/27 08:44:58;;;;;;;9.30;1.60;;;19.70;99.90;;;;;;5044683;28;20041;-78
2022/08/27 08:47:25;;;;;;;9.07;1.85;;;19.70;99.90;;;;;;5031574;28;20056;-77
2022/08/27 08:49:59;;;;;;;13.05;1.83;;;19.70;99.90;;;;;;5047268;28;20124;-78
2022/08/27 08:52:38;;;;;;;8.02;1.65;;;19.80;99.90;;;;;;5022429;28;20052;-76
2022/08/27 08:55:32;;;;;;;8.13;1.40;;;19.70;99.90;;;;;;5031491;28;20468;-76
2022/08/27 08:58:39;;;;;;;17.50;2.00;;;19.60;99.90;;;;;;5031919;28;20056;-76
2022/08/27 09:01:07;;;;;;;9.88;1.60;;;19.40;99.90;;;;;;4955342;28;20051;-78
2022/08/27 09:03:39;;;;;;;9.65;1.50;;;19.50;99.90;;;;;;4947420;28;20129;-77
2022/08/27 09:06:09;;;;;;;7.55;1.52;;;19.50;99.90;;;;;;4948778;28;20058;-76
2022/08/27 09:08:39;;;;;;;6.57;1.55;;;19.50;99.90;;;;;;4948351;28;20126;-75
2022/08/27 09:11:22;;;;;;;10.38;2.15;;;19.60;99.90;;;;;;4970827;28;20046;-76
2022/08/27 09:14:06;;;;;;;11.82;1.80;;;19.80;99.90;;;;;;4943556;28;20070;-74
2022/08/27 09:16:32;;;;;;;10.07;1.23;;;19.80;99.90;;;;;;4940499;28;20164;-73
2022/08/27 09:19:05;;;;;;;12.95;1.80;;;19.90;99.90;;;;;;4969767;28;20518;-73
2022/08/27 09:21:42;;;;;;;8.90;1.50;;;20.10;99.90;;;;;;4947903;28;20043;-74
2022/08/27 09:24:22;;;;;;;8.32;1.63;;;20.20;99.90;;;;;;4946695;28;20129;-74
2022/08/27 09:26:47;;;;;;;14.57;1.75;;;20.00;99.90;;;;;;4951490;28;20042;-76
2022/08/27 09:29:20;;;;;;;8.30;1.83;;;20.10;99.90;;;;;;4948637;28;20039;-77
2022/08/27 09:31:59;;;;;;;10.98;1.67;;;20.00;99.90;;;;;;4947986;28;20113;-75
2022/08/27 09:34:33;;;;;;;7.50;1.60;;;20.00;99.90;;;;;;4934187;28;20054;-78
2022/08/27 09:37:19;;;;;;;13.15;1.70;;;20.00;99.90;;;;;;4955222;28;20147;-78
2022/08/27 09:40:10;;;;;;;7.75;1.30;;;20.00;99.90;;;;;;5020517;28;20311;-76
2022/08/27 09:42:46;;;;;;;11.15;1.67;;;19.90;99.90;;;;;;5021679;28;20453;-77
2022/08/27 09:45:20;;;;;;;10.43;1.65;;;19.80;99.90;;;;;;5036377;28;20055;-77
2022/08/27 09:47:54;;;;;;;8.83;1.67;;;19.70;99.90;;;;;;5046966;28;20055;-77
2022/08/27 09:50:22;;;;;;;10.90;1.80;;;19.90;99.90;;;;;;5046186;28;20142;-77
2022/08/27 09:52:56;;;;;;;8.15;1.98;;;20.00;99.90;;;;;;5038649;28;20059;-77
2022/08/27 09:55:33;;;;;;;6.30;1.38;;;20.20;99.90;;;;;;5035691;28;20082;-77
2022/08/27 09:58:00;;;;;;;8.23;1.42;;;20.20;99.90;;;;;;5028315;28;20128;-77
2022/08/27 10:00:46;;;;;;;7.50;1.30;;;20.20;99.90;;;;;;5022908;28;20483;-77
2022/08/27 10:06:53;;;;;;;6.57;1.42;;;20.30;99.90;;;;;;5063291;28;20031;-77
2022/08/27 10:09:28;;;;;;;6.90;1.77;;;20.40;99.90;;;;;;5020558;28;20664;-77
2022/08/27 10:12:21;;;;;;;5.13;1.08;;;20.40;99.90;;;;;;5029198;28;20044;-76
2022/08/27 10:14:51;;;;;;;7.35;1.90;;;20.30;99.90;;;;;;5024132;28;20043;-76
2022/08/27 10:17:39;;;;;;;8.82;1.63;;;20.30;99.90;;;;;;5060752;28;20099;-76
2022/08/27 10:20:24;;;;;;;13.25;2.17;;;20.40;99.90;;;;;;5062405;28;20051;-75
2022/08/27 10:23:09;;;;;;;7.38;1.73;;;20.40;99.90;;;;;;5040878;28;20041;-74
2022/08/27 10:25:39;;;;;;;8.35;1.33;;;20.40;99.90;;;;;;5022813;28;20135;-77
2022/08/27 10:28:48;;;;;;;7.97;1.40;;;20.50;99.90;;;;;;5039069;28;20060;-75
2022/08/27 10:31:38;;;;;;;8.20;1.45;;;20.50;99.90;;;;;;5034763;28;20060;-76
2022/08/27 10:34:38;;;;;;;9.10;1.67;;;20.50;99.90;;;;;;5038987;28;20041;-76
2022/08/27 10:37:14;;;;;;;10.48;1.67;;;20.50;99.90;;;;;;5031992;28;20047;-75
2022/08/27 10:40:08;;;;;;;10.93;1.52;;;20.50;99.90;;;;;;5034513;28;20511;-74
2022/08/27 10:43:12;;;;;;;7.43;1.13;;;20.50;99.90;;;;;;5032171;28;20599;-77
2022/08/27 10:45:54;;;;;;;8.35;1.45;;;20.70;99.90;;;;;;5031994;28;20072;-74
2022/08/27 10:48:25;;;;;;;7.07;1.25;;;21.20;99.90;;;;;;5034215;28;20064;-76
2022/08/27 10:50:57;;;;;;;6.10;1.08;;;21.60;99.90;;;;;;5036422;28;20056;-76
2022/08/27 10:53:35;;;;;;;7.93;1.30;;;21.40;99.90;;;;;;5021370;28;20033;-76
2022/08/27 10:56:19;;;;;;;10.10;1.60;;;21.30;99.90;;;;;;5038056;28;20094;-77
2022/08/27 10:58:54;;;;;;;9.55;1.90;;;21.40;99.90;;;;;;5033930;28;20040;-77
2022/08/27 11:01:23;;;;;;;;;;;21.20;99.90;;;;;;5046154;28;20059;-77
2022/08/27 11:03:59;;;;;;;7.40;1.40;;;21.10;99.90;;;;;;5017890;28;19917;-78
2022/08/27 11:06:36;;;;;;;12.02;1.35;;;21.10;99.90;;;;;;5036296;28;20057;-77
2022/08/27 11:09:13;;;;;;;6.13;1.13;;;21.40;99.90;;;;;;5041113;28;20384;-76
2022/08/27 11:11:42;;;;;;;12.07;1.40;;;21.70;99.90;;;;;;5028574;28;20048;-78
2022/08/27 11:14:36;;;;;;;8.60;1.20;;;22.20;99.90;;;;;;5039485;28;20028;-79
2022/08/27 11:21:04;;;;;;;4.47;1.30;;;23.00;99.90;;;;;;5061159;28;20159;-75
2022/08/27 11:23:38;;;;;;;9.65;1.60;;;22.50;99.90;;;;;;5028954;28;20036;-75
2022/08/27 11:26:05;;;;;;;2.92;0.93;;;22.00;99.90;;;;;;5041392;28;20186;-76
2022/08/27 11:28:58;;;;;;;6.00;1.45;;;21.60;99.90;;;;;;5042263;28;20060;-77
2022/08/27 11:31:35;;;;;;;4.00;1.02;;;21.90;99.90;;;;;;5046116;28;20400;-77
2022/08/27 11:34:09;;;;;;;5.72;1.27;;;22.50;99.90;;;;;;5040107;28;22881;-76
2022/08/27 11:36:45;;;;;;;6.70;1.23;;;22.70;99.90;;;;;;5038827;28;20377;-77
2022/08/27 11:40:03;;;;;;;6.65;1.33;;;22.70;99.90;;;;;;5030908;28;20049;-76
2022/08/27 11:42:55;;;;;;;6.60;1.33;;;22.30;99.90;;;;;;4962775;28;20105;-76
2022/08/27 11:45:33;;;;;;;5.80;1.40;;;22.00;99.90;;;;;;4956201;28;20055;-76
2022/08/27 11:51:40;;;;;;;9.00;1.35;;;21.80;99.90;;;;;;4970847;28;20062;-76
2022/08/27 11:54:20;;;;;;;9.25;1.45;;;21.70;99.90;;;;;;4968844;28;20113;-76
2022/08/27 11:56:46;;;;;;;10.15;1.50;;;22.10;99.90;;;;;;4951498;28;20510;-76
2022/08/27 11:59:29;;;;;;;8.55;1.23;;;22.60;99.90;;;;;;4971496;28;20138;-77
2022/08/27 12:01:58;;;;;;;8.75;1.17;;;22.90;99.90;;;;;;4959495;28;20170;-77
2022/08/27 12:04:29;;;;;;;9.38;1.50;;;23.10;99.90;;;;;;4944490;28;20113;-77
2022/08/27 12:07:13;;;;;;;7.03;1.25;;;22.60;99.90;;;;;;4948993;28;20051;-76
2022/08/27 12:10:16;;;;;;;10.05;1.65;;;22.30;99.90;;;;;;4945396;28;20510;-77
2022/08/27 12:13:12;;;;;;;8.98;1.50;;;22.70;99.90;;;;;;4949387;28;20047;-77
2022/08/27 12:15:53;;;;;;;8.38;1.38;;;22.60;99.90;;;;;;4947852;28;20137;-76
2022/08/27 12:18:52;;;;;;;5.30;1.30;;;22.40;99.90;;;;;;5001087;28;20041;-77
2022/08/27 12:21:50;;;;;;;11.45;1.17;;;22.50;99.90;;;;;;5047702;28;20119;-75
2022/08/27 12:24:21;;;;;;;6.38;1.20;;;23.10;99.90;;;;;;4949557;28;20434;-76
2022/08/27 12:27:00;;;;;;;4.80;1.27;;;23.70;99.90;;;;;;4963349;28;20051;-76
2022/08/27 12:29:46;;;;;;;4.75;1.00;;;23.80;99.90;;;;;;4947751;28;20490;-76
2022/08/27 12:36:16;;;;;;;7.90;1.40;;;24.20;99.20;;;;;;4963597;28;20045;-77
2022/08/27 12:38:47;;;;;;;5.38;1.02;;;24.00;99.60;;;;;;4939289;28;20249;-77
2022/08/27 12:41:28;;;;;;;6.20;1.00;;;23.90;99.30;;;;;;4956915;28;20133;-76
2022/08/27 12:44:08;;;;;;;5.43;1.10;;;24.20;99.10;;;;;;4948854;28;20085;-77
2022/08/27 12:46:44;;;;;;;6.38;1.20;;;23.90;99.60;;;;;;4960636;28;20423;-76
2022/08/27 12:49:10;;;;;;;5.18;1.08;;;23.80;99.00;;;;;;4953843;28;20122;-76
2022/08/27 12:51:36;;;;;;;3.95;1.10;;;23.80;99.20;;;;;;4935910;28;20146;-77
2022/08/27 12:54:21;;;;;;;9.18;1.30;;;23.90;99.70;;;;;;4965650;28;20086;-77
2022/08/27 12:56:55;;;;;;;5.07;1.52;;;23.30;99.90;;;;;;4944375;28;20038;-77
2022/08/27 12:59:20;;;;;;;5.78;1.38;;;23.00;99.90;;;;;;4949651;28;20075;-77
2022/08/27 13:02:14;;;;;;;10.98;1.48;;;22.50;99.90;;;;;;5005294;28;20503;-76
2022/08/27 13:04:42;;;;;;;6.50;1.60;;;22.30;99.90;;;;;;5029321;28;20059;-77
2022/08/27 13:07:08;;;;;;;5.28;1.38;;;22.60;99.90;;;;;;5031625;28;20583;-77
2022/08/27 13:09:37;;;;;;;9.02;1.42;;;23.40;99.90;;;;;;5034311;28;20040;-77
2022/08/27 13:12:18;;;;;;;4.85;1.30;;;23.80;99.90;;;;;;5041508;28;20094;-77
2022/08/27 13:14:44;;;;;;;7.00;1.80;;;23.20;99.90;;;;;;5046004;28;20447;-77
2022/08/27 13:17:14;;;;;;;8.02;1.50;;;22.80;99.90;;;;;;5036065;28;20144;-76
2022/08/27 13:19:51;;;;;;;7.20;1.42;;;22.50;99.90;;;;;;5026915;28;20072;-77
2022/08/27 13:22:22;;;;;;;4.03;1.15;;;22.50;99.90;;;;;;5030286;28;20369;-76
2022/08/27 13:24:50;;;;;;;8.93;1.45;;;22.30;99.90;;;;;;5039742;28;20049;-76
2022/08/27 13:27:26;;;;;;;6.13;1.38;;;22.50;99.90;;;;;;5029856;28;20049;-76
2022/08/27 13:29:53;;;;;;;14.35;1.30;;;22.50;99.90;;;;;;5038376;28;20045;-77
2022/08/27 13:32:19;;;;;;;8.38;1.48;;;22.40;99.90;;;;;;5022898;28;20051;-76